Ana Sayfa
METAR-TAF:

METAR-TAF

Havaalanları :

Kununurra, Avustralya

Enlem: 15-46S, Boylam: 128-42E, yükseklik: 44 m

Güncel hava durumu gözlemi

Rapor saat 10:00 UTC de 28 dakika önce yapıldı.
Rüzgar kuzeydan 5 kt
Sıcaklık 25°C
Nem 44%
Basınç 1011 hPa
Görüş mesafesi 10 km veya daha fazla

METAR: YPKU 221000Z AUTO 36005KT 9999 // NCD 25/12 Q1011 RF00.0/000.0

Saat: 18:28 (10:28 UTC)

Tahmin

Rapor saat 07:03 UTC de 3 saat ve 25 dakika önce yapıldı.
Ayın 22'si saat 08 UTC'den ayın 22'si saat 20 UTC'ye kadar geçerli Tahmin
Rüzgar değişken yönden 5 kt
Görüş mesafesi 10 km veya daha fazla
1500 m altında bulut yok ve kümülonimbus yok

TAF: YPKU 220703Z 2208/2220 VRB05KT CAVOK

4.000'den fazla havaalanı için hava durumu gözlemleri ve tahminleri (METAR ve TAF raporları).

Kullanılabilir istasyonlar harita üzerinde sarı ve kırmızı noktalarla gösterilir.

İstasyonun adını görmek için fareyi noktanın üzerinde gezdirin.

Sonrasında hava gözlem ve tahminlerini görmek için tıklayın.

Haritayı değiştirmek için: yaklaştırmak için siyah artı işaretli yeşil düğmeye ve uzaklaştırmak için de eksi işaretli düğmeye hızla tıklayın; bitişik haritalar için yeşil okları kullanın.


METAR-TAF: